Welcome to Des Moines Iowa Weather. I am an independent private personal weather station on the Northwest Side of Des Moines, Iowa. Just East of Windsor Heights and just West of Glendale . This site is also mobile friendly.

There are no active watches, warnings or advisories


Visit our other weather sites:

Historical Data

Weather Station Setup



Weather Underground History page Text

Daily Summary for January 5, 2018 Units:  Metric    English   Both
« Previous Day
Next Day »
Daily Weekly Monthly Yearly Custom
  High: Low: Average:
Temperature: -10.5 °C -18.3 °C -13.4 °C
Dew Point: -15.6 °C -21.1 °C -17.7 °C
Humidity: 79 % 55 % 72 %
Wind Speed: 6.4 km/h 0 km/h 1.4 km/h
Wind Gust: 16.1 km/h - -
Wind:- - NE
Pressure: 1038.1 hPa 1030.7 hPa -
Precipitation: 0 mm    
Historical Graphs
 
 
Tabular Data for January 5, 2018
Time Temperature Dew Point Pressure Wind Wind Speed Wind Gust Humidity Rainfall Rate (Hourly)
00:02 -12.6 °C -16.1 °C 1030.7 hPa NE 4.8 km/h 6.4 km/h 75 % 0 mm
00:18 -12.7 °C -16.1 °C 1030.7 hPa Calm   8 km/h 75 % 0 mm
00:33 -12.9 °C -16.7 °C 1030.7 hPa Calm   4.8 km/h 75 % 0 mm
00:48 -12.9 °C -16.7 °C 1030.7 hPa Calm   1.6 km/h 75 % 0 mm
01:03 -12.9 °C -16.7 °C 1030.7 hPa Calm   4.8 km/h 75 % 0 mm
01:18 -12.9 °C -16.7 °C 1030.7 hPa Calm   1.6 km/h 75 % 0 mm
01:33 -12.8 °C -16.1 °C 1030.7 hPa NE 1.6 km/h 3.2 km/h 75 % 0 mm
01:48 -12.8 °C -16.1 °C 1030.7 hPa Calm   4.8 km/h 75 % 0 mm
02:03 -12.8 °C -16.1 °C 1030.7 hPa Calm   4.8 km/h 75 % 0 mm
02:18 -12.8 °C -16.1 °C 1030.7 hPa Calm   4.8 km/h 75 % 0 mm
02:33 -12.8 °C -16.1 °C 1030.7 hPa Calm   3.2 km/h 75 % 0 mm
03:03 -12.8 °C -16.1 °C 1031 hPa NNE 3.2 km/h 3.2 km/h 76 % 0 mm
03:18 -12.8 °C -16.1 °C 1031.4 hPa Calm   4.8 km/h 76 % 0 mm
03:33 -12.8 °C -16.1 °C 1031.4 hPa NE 1.6 km/h 3.2 km/h 76 % 0 mm
03:48 -12.8 °C -16.1 °C 1031.7 hPa Calm   4.8 km/h 76 % 0 mm
04:03 -12.8 °C -16.1 °C 1031.7 hPa Calm   3.2 km/h 77 % 0 mm
04:18 -12.8 °C -16.1 °C 1032.1 hPa NE 4.8 km/h 6.4 km/h 77 % 0 mm
04:33 -12.8 °C -16.1 °C 1032.1 hPa NE 3.2 km/h 4.8 km/h 78 % 0 mm
04:48 -12.8 °C -16.1 °C 1032.4 hPa Calm   8 km/h 78 % 0 mm
05:03 -12.8 °C -16.1 °C 1032.4 hPa Calm   6.4 km/h 78 % 0 mm
05:18 -12.8 °C -15.6 °C 1032.4 hPa NE 1.6 km/h 4.8 km/h 79 % 0 mm
05:33 -12.8 °C -15.6 °C 1032.7 hPa Calm   6.4 km/h 79 % 0 mm
05:48 -12.8 °C -15.6 °C 1032.4 hPa NNE 1.6 km/h 6.4 km/h 79 % 0 mm
06:03 -12.8 °C -15.6 °C 1033.1 hPa Calm   6.4 km/h 79 % 0 mm
06:18 -12.9 °C -15.6 °C 1033.1 hPa North 4.8 km/h 8 km/h 79 % 0 mm
06:33 -12.9 °C -16.1 °C 1033.1 hPa NE 4.8 km/h 8 km/h 78 % 0 mm
06:48 -13 °C -16.1 °C 1033.1 hPa Calm   9.7 km/h 78 % 0 mm
07:03 -13 °C -16.1 °C 1033.1 hPa ENE 4.8 km/h 6.4 km/h 78 % 0 mm
07:18 -13.1 °C -16.1 °C 1033.1 hPa Calm   6.4 km/h 78 % 0 mm
07:33 -13.1 °C -16.1 °C 1033.1 hPa ENE 3.2 km/h 8 km/h 78 % 0 mm
07:48 -13.1 °C -16.1 °C 1033.1 hPa ENE 1.6 km/h 9.7 km/h 78 % 0 mm
08:03 -13.2 °C -16.1 °C 1033.4 hPa NNE 1.6 km/h 6.4 km/h 78 % 0 mm
08:18 -13.3 °C -16.7 °C 1033.4 hPa Calm   6.4 km/h 77 % 0 mm
08:33 -13.4 °C -16.7 °C 1033.7 hPa Calm   6.4 km/h 77 % 0 mm
08:49 -13.3 °C -16.7 °C 1034.1 hPa North 1.6 km/h 9.7 km/h 77 % 0 mm
09:04 -13.1 °C -16.1 °C 1034.1 hPa ENE 4.8 km/h 12.9 km/h 77 % 0 mm
09:19 -13 °C -16.1 °C 1034.4 hPa ENE 3.2 km/h 12.9 km/h 76 % 0 mm
09:34 -12.8 °C -16.1 °C 1034.4 hPa Calm   16.1 km/h 75 % 0 mm
09:49 -12.7 °C -16.7 °C 1034.8 hPa ENE 1.6 km/h 9.7 km/h 73 % 0 mm
10:04 -12.3 °C -16.7 °C 1034.8 hPa NNE 6.4 km/h 8 km/h 72 % 0 mm
10:19 -12.2 °C -16.7 °C 1035.1 hPa ENE 1.6 km/h 9.7 km/h 71 % 0 mm
10:34 -12.1 °C -16.7 °C 1035.1 hPa NE 3.2 km/h 8 km/h 70 % 0 mm
10:49 -12 °C -16.7 °C 1035.4 hPa ENE 1.6 km/h 6.4 km/h 69 % 0 mm
11:04 -11.9 °C -17.2 °C 1035.4 hPa ENE 3.2 km/h 9.7 km/h 66 % 0 mm
11:19 -11.9 °C -17.2 °C 1035.1 hPa ENE 4.8 km/h 8 km/h 64 % 0 mm
11:34 -11.7 °C -17.2 °C 1035.1 hPa NNE 1.6 km/h 8 km/h 63 % 0 mm
11:49 -11.6 °C -17.8 °C 1035.1 hPa Calm   8 km/h 62 % 0 mm
12:04 -11.3 °C -17.8 °C 1035.1 hPa ENE 1.6 km/h 9.7 km/h 59 % 0 mm
12:19 -11.2 °C -18.3 °C 1035.1 hPa NNE 1.6 km/h 9.7 km/h 56 % 0 mm
12:41 -10.7 °C -18.3 °C 1034.8 hPa NE 3.2 km/h 6.4 km/h 55 % 0 mm
12:59 -10.7 °C -18.3 °C 1034.8 hPa Calm   8 km/h 55 % 0 mm
13:05 -10.5 °C -17.8 °C 1034.8 hPa Calm   9.7 km/h 57 % 0 mm
13:24 -10.6 °C -17.8 °C 1034.4 hPa North 4.8 km/h 9.7 km/h 56 % 0 mm
13:40 -10.7 °C -17.8 °C 1034.4 hPa Calm   9.7 km/h 57 % 0 mm
13:50 -10.7 °C -18.3 °C 1034.4 hPa NNE 3.2 km/h 9.7 km/h 55 % 0 mm
14:05 -11.1 °C -18.3 °C 1034.4 hPa NNE 3.2 km/h 12.9 km/h 57 % 0 mm
14:20 -11.6 °C -18.3 °C 1034.8 hPa North 1.6 km/h 11.3 km/h 58 % 0 mm
14:35 -11.4 °C -18.3 °C 1034.8 hPa NE 1.6 km/h 6.4 km/h 58 % 0 mm
14:50 -11.5 °C -18.3 °C 1035.1 hPa North 3.2 km/h 8 km/h 59 % 0 mm
15:05 -11.6 °C -18.3 °C 1035.1 hPa ENE 6.4 km/h 6.4 km/h 58 % 0 mm
15:20 -11.6 °C -18.3 °C 1035.1 hPa ENE 6.4 km/h 9.7 km/h 58 % 0 mm
15:35 -11.8 °C -18.3 °C 1035.1 hPa Calm   6.4 km/h 60 % 0 mm
15:50 -11.9 °C -18.3 °C 1035.1 hPa Calm   9.7 km/h 60 % 0 mm
16:05 -12.4 °C -18.9 °C 1035.1 hPa ENE 1.6 km/h 9.7 km/h 60 % 0 mm
16:35 -12.9 °C -18.3 °C 1035.4 hPa ENE 1.6 km/h 8 km/h 65 % 0 mm
16:50 -13.4 °C -18.3 °C 1035.4 hPa Calm   4.8 km/h 66 % 0 mm
17:05 -13.7 °C -18.9 °C 1035.4 hPa ENE 1.6 km/h 4.8 km/h 67 % 0 mm
17:20 -13.9 °C -18.3 °C 1035.8 hPa Calm   6.4 km/h 69 % 0 mm
17:35 -14.2 °C -18.3 °C 1035.8 hPa Calm   4.8 km/h 70 % 0 mm
17:50 -14.6 °C -18.9 °C 1036.1 hPa Calm   6.4 km/h 71 % 0 mm
18:06 -14.8 °C -18.9 °C 1036.1 hPa Calm   6.4 km/h 71 % 0 mm
18:21 -15.1 °C -18.9 °C 1036.1 hPa Calm   3.2 km/h 72 % 0 mm
18:36 -15.3 °C -19.4 °C 1036.5 hPa Calm   3.2 km/h 73 % 0 mm
18:51 -15.5 °C -19.4 °C 1036.5 hPa Calm   4.8 km/h 74 % 0 mm
19:06 -15.7 °C -18.9 °C 1036.8 hPa Calm   4.8 km/h 75 % 0 mm
19:21 -15.9 °C -19.4 °C 1036.8 hPa Calm   4.8 km/h 75 % 0 mm
19:36 -16.1 °C -19.4 °C 1037.1 hPa NNE 1.6 km/h 4.8 km/h 76 % 0 mm
19:51 -16.3 °C -19.4 °C 1037.5 hPa Calm   3.2 km/h 76 % 0 mm
20:21 -16.4 °C -19.4 °C 1037.5 hPa NNE 1.6 km/h 4.8 km/h 77 % 0 mm
20:36 -16.5 °C -19.4 °C 1037.5 hPa Calm   3.2 km/h 77 % 0 mm
20:51 -16.4 °C -19.4 °C 1037.1 hPa NNE 3.2 km/h 3.2 km/h 77 % 0 mm
21:06 -16.3 °C -19.4 °C 1037.1 hPa Calm   6.4 km/h 77 % 0 mm
21:22 -16.3 °C -19.4 °C 1037.1 hPa Calm   3.2 km/h 77 % 0 mm
21:37 -16.3 °C -19.4 °C 1037.5 hPa NNE 3.2 km/h 3.2 km/h 77 % 0 mm
21:52 -16.4 °C -19.4 °C 1037.5 hPa Calm   1.6 km/h 77 % 0 mm
22:07 -16.6 °C -20 °C 1037.5 hPa Calm     76 % 0 mm
22:22 -16.8 °C -20 °C 1037.5 hPa Calm     76 % 0 mm
22:37 -17.1 °C -20.6 °C 1037.8 hPa Calm     76 % 0 mm
22:52 -17.4 °C -20.6 °C 1037.8 hPa Calm     76 % 0 mm
23:07 -17.7 °C -20.6 °C 1037.8 hPa Calm     77 % 0 mm
23:22 -17.9 °C -21.1 °C 1038.1 hPa Calm     77 % 0 mm
23:37 -18.1 °C -21.1 °C 1037.8 hPa Calm     78 % 0 mm
23:52 -18.3 °C -21.1 °C 1037.8 hPa Calm     78 % 0 mm
Des Moines Weather and Climate
Compliments of Weather Underground - 3 mb

Script developed by  Jim McMurry - jmcmurry@mwt.net Adapted for the template by  Wim van der Kuil - Leuven-Template.eu

You find our weather info also at:

Weather Underground

Equipment we use:

Weather-station
Davis VP2 Plus

Weather-program
Davis Weatherlink.Com

Weather-server
iMac (Retina 4K, 21.5-inch, Late 2015)

Provider
Hostmonster.com

Davis VP2 Plus

Davis Weatherlink.Com

iMac (Retina 4K, 21.5-inch, Late 2015)

Hostmonster.com